Woodrow, Minnesota
Current Conditions -  °F | °C
As of 12:14 PM on Friday 28 Nov 2014 (Local Time) from KPWC Reporting Station
Light Snow Light Snow  
Wind Chill:   Ceiling: 1500
Heat Index: 12°   Visibility: 7mi
Dew Point:   Wind: 7mph
Humidity: 85%   Direction: 120°ESE
Pressure: 29.9"   Gusts: NA
Location:  46.6535°N, 94.5389°W
Report Text: KPWC 281814Z AUTO 12006KT 7SM -SN BKN015 OVC050 M11/M13 A2990 RMK AO2
Loading
Personal Weather Stations






























Interactive Weather Map New forecast layout! Learn more

10-Day Weather Forecast

Advertisements
Track Severe Weather on mobile